LUKK

Chişinău International Airport

Chişinău, Moldova
TAF LUKK 221725Z 2218/2318 13010KT 2100 SN BKN005 TEMPO 2218/2302 0800 +SHSN VV/// TEMPO 2302/2306 1200 SHSNRA BR BKN004 BKN010CB BECMG 2306/2308 1500 RA BR TEMPO 2308/2314 1000 SHRA BR BKN002 BKN010CB BECMG 2314/2316 1200 BR BKN002
Issued Valid From Valid To
Jan-22 @ 17:25 UTC
(25 minutes ago)
Jan-22 @ 18:00 UTC
(in 10 minutes)
Jan-23 @ 18:00 UTC
(in 24 hours)
Jan-22 @ 18:00 to Jan-23 @ 06:00
TAF LUKK 221725Z 2218/2318 13010KT 2100 SN BKN005
Wind Visibility Clouds Conditions
130° at 10 knots 2,092 meters
  • Broken at 500' AGL
  • Snow
Temporary Jan-22 @ 18:00 to Jan-23 @ 02:00
TEMPO 2218/2302 0800 +SHSN VV///
Visibility Conditions
805 meters
  • Heavy Snow
Temporary Jan-23 @ 02:00 to Jan-23 @ 06:00
TEMPO 2302/2306 1200 SHSNRA BR BKN004 BKN010CB
Visibility Clouds Conditions
1,207 meters
  • Broken at 400' AGL
  • Broken at 1,000' AGL
  • Snow
  • Rain
  • Mist
Becoming Jan-23 @ 06:00 to Jan-23 @ 14:00
BECMG 2306/2308 1500 RA BR
Wind Visibility Clouds Conditions
130° at 10 knots 1,497 meters
  • Broken at 500' AGL
  • Rain
  • Mist
Temporary Jan-23 @ 08:00 to Jan-23 @ 14:00
TEMPO 2308/2314 1000 SHRA BR BKN002 BKN010CB
Visibility Clouds Conditions
998 meters
  • Broken at 200' AGL
  • Broken at 1,000' AGL
  • Rain
  • Mist
Becoming Jan-23 @ 14:00 to Jan-23 @ 18:00
BECMG 2314/2316 1200 BR BKN002
Wind Visibility Clouds Conditions
130° at 10 knots 1,207 meters
  • Broken at 200' AGL
  • Mist
TAF LUKK 221725Z 2218/2318 13010KT 2100 SN BKN005 TEMPO 2218/2302 0800 +SHSN VV/// TEMPO 2302/2306 1200 SHSNRA BR BKN004 BKN010CB BECMG 2306/2308 1500 RA BR TEMPO 2308/2314 1000 SHRA BR BKN002 BKN010CB BECMG 2314/2316 1200 BR BKN002
Issued Jan-22 @ 17:25 UTC
(25 minutes ago)
Valid From Jan-22 @ 18:00 UTC
(in 10 minutes)
Valid To Jan-23 @ 18:00 UTC
(in 24 hours)
Jan-22 @ 18:00 - Jan-23 @ 06:00
Wind Visibility
130° at 10 knots 2,092 meters
Clouds
  • Broken at 500' AGL
Conditions
  • Snow
Temporary Jan-22 @ 18:00 - Jan-23 @ 02:00
Conditions
  • Heavy Snow
Temporary Jan-23 @ 02:00 - Jan-23 @ 06:00
Clouds
  • Broken at 400' AGL
  • Broken at 1,000' AGL
Conditions
  • Snow
  • Rain
  • Mist
Becoming Jan-23 @ 06:00 - Jan-23 @ 14:00
Wind Visibility
130° at 10 knots 1,497 meters
Clouds
  • Broken at 500' AGL
Conditions
  • Rain
  • Mist
Temporary Jan-23 @ 08:00 - Jan-23 @ 14:00
Clouds
  • Broken at 200' AGL
  • Broken at 1,000' AGL
Conditions
  • Rain
  • Mist
Becoming Jan-23 @ 14:00 - Jan-23 @ 18:00
Wind Visibility
130° at 10 knots 1,207 meters
Clouds
  • Broken at 200' AGL
Conditions
  • Mist